Lochbuie, Colorado
Current Conditions -  °F | °C
As of 5:53 AM on Wednesday 22 Oct 2014 (Local Time) from KDEN Reporting Station
Broken Clouds Broken Clouds  
Wind Chill: 43°   Ceiling: 20000
Heat Index: 46°   Visibility: 10mi
Dew Point: 41°   Wind: 6mph
Humidity: 83%   Direction: 150°SSE
Pressure: 30.04"   Gusts: NA
Location:  39.9805°N, 104.669°W
Report Text: KDEN 221153Z 15005KT 10SM SCT100 BKN200 08/05 A3004 RMK AO2 SLP122 60002 70002 T00780050 10150 20078 50014
Loading
Personal Weather Stations






























Interactive Weather Map
Tropical Storm Tracking
New forecast layout! Learn more

10-Day Weather Forecast

Advertisements
Track Severe Weather on mobile